Time;durP1;ratioP1;P1;durP2;ratioP2;P2;SDS_P1;SDS_P2;PMS_P1;PMS_P2;Temp;Humidity;BMP_temperature;BMP_pressure;BME280_temperature;BME280_humidity;BME280_pressure;Samples;Min_cycle;Max_cycle;Signal;HPM_P1;HPM_P2
2024/01/21 00:01:40;;;;;;;10.43;3.83;;;0.80;99.90;;;;;;5047671;28;20100;-71
2024/01/21 00:04:11;;;;;;;8.37;4.43;;;0.80;99.90;;;;;;5067682;28;20043;-69
2024/01/21 00:06:37;;;;;;;9.35;4.25;;;0.80;99.90;;;;;;5065148;28;20115;-69
2024/01/21 00:09:02;;;;;;;11.93;4.97;;;0.80;99.90;;;;;;5064994;28;20123;-69
2024/01/21 00:11:28;;;;;;;10.10;4.73;;;0.70;99.90;;;;;;5065824;28;20032;-69
2024/01/21 00:13:54;;;;;;;9.43;4.10;;;0.70;99.90;;;;;;5052558;28;20039;-69
2024/01/21 00:16:20;;;;;;;15.37;4.47;;;0.70;99.90;;;;;;5071637;28;20093;-69
2024/01/21 00:18:45;;;;;;;10.27;4.83;;;0.70;99.90;;;;;;5050768;28;20393;-69
2024/01/21 00:21:11;;;;;;;11.47;5.03;;;0.70;99.90;;;;;;5054198;28;20036;-69
2024/01/21 00:23:36;;;;;;;12.10;4.70;;;0.70;99.90;;;;;;5064847;28;20036;-68
2024/01/21 00:26:02;;;;;;;13.13;5.40;;;0.70;99.90;;;;;;5068575;28;20085;-68
2024/01/21 00:28:34;;;;;;;12.43;4.78;;;0.60;99.90;;;;;;5051041;28;20397;-70
2024/01/21 00:31:05;;;;;;;10.68;4.65;;;0.60;99.90;;;;;;5025611;28;20041;-71
2024/01/21 00:33:34;;;;;;;10.48;4.63;;;0.50;99.90;;;;;;5042976;28;20502;-71
2024/01/21 00:36:01;;;;;;;11.38;5.50;;;0.60;99.90;;;;;;5027608;28;20086;-70
2024/01/21 00:38:33;;;;;;;10.57;5.30;;;0.60;99.90;;;;;;5037759;28;20478;-69
2024/01/21 00:40:59;;;;;;;13.35;5.78;;;0.60;99.90;;;;;;4957080;28;20127;-71
2024/01/21 00:43:25;;;;;;;12.93;5.63;;;0.60;99.90;;;;;;5049987;28;20040;-68
2024/01/21 00:45:53;;;;;;;11.05;4.72;;;0.70;99.90;;;;;;5043431;28;20049;-72
2024/01/21 00:48:19;;;;;;;12.63;5.15;;;0.60;99.90;;;;;;5058225;28;20090;-70
2024/01/21 00:50:46;;;;;;;12.63;5.97;;;0.60;99.90;;;;;;5021442;28;20353;-71
2024/01/21 00:53:15;;;;;;;11.02;5.15;;;0.60;99.90;;;;;;5057274;28;20563;-70
2024/01/21 00:55:42;;;;;;;10.73;4.95;;;0.60;99.90;;;;;;4930929;28;20557;-70
2024/01/21 00:58:08;;;;;;;10.48;5.45;;;0.60;99.90;;;;;;5064312;28;20079;-68
2024/01/21 01:00:34;;;;;;;13.32;5.85;;;0.60;99.90;;;;;;5042114;28;20508;-70
2024/01/21 01:03:01;;;;;;;9.80;5.07;;;0.60;99.90;;;;;;5043647;28;20045;-68
2024/01/21 01:05:28;;;;;;;10.23;4.47;;;0.50;99.90;;;;;;5030517;28;20055;-68
2024/01/21 01:07:55;;;;;;;11.93;4.75;;;0.60;99.90;;;;;;5043460;28;20048;-69
2024/01/21 01:10:22;;;;;;;11.50;4.78;;;0.60;99.90;;;;;;5065002;28;20052;-69
2024/01/21 01:12:48;;;;;;;11.05;4.60;;;0.60;99.90;;;;;;5043991;28;20041;-68
2024/01/21 01:15:14;;;;;;;10.32;4.78;;;0.60;99.90;;;;;;5050367;28;20406;-68
2024/01/21 01:17:40;;;;;;;9.52;4.68;;;0.60;99.90;;;;;;5062691;28;20475;-69
2024/01/21 01:20:07;;;;;;;10.05;5.13;;;0.60;99.90;;;;;;5062925;28;20044;-69
2024/01/21 01:22:33;;;;;;;;;;;0.60;99.90;;;;;;5032400;28;20044;-70
2024/01/21 01:25:05;;;;;;;8.18;4.45;;;0.70;99.90;;;;;;5046584;28;19921;-68
2024/01/21 01:27:34;;;;;;;12.02;4.38;;;0.70;99.90;;;;;;5043697;28;20090;-68
2024/01/21 01:30:07;;;;;;;9.55;4.45;;;0.70;99.90;;;;;;5052756;28;20097;-69
2024/01/21 01:32:34;;;;;;;7.03;3.88;;;0.70;99.90;;;;;;5042044;28;20726;-70
2024/01/21 01:35:00;;;;;;;8.07;4.00;;;0.70;99.90;;;;;;5054876;28;20051;-68
2024/01/21 01:37:26;;;;;;;6.57;3.42;;;0.80;99.90;;;;;;5050688;28;20060;-69
2024/01/21 01:39:53;;;;;;;9.30;4.57;;;0.90;99.90;;;;;;5047483;28;20383;-69
2024/01/21 01:42:22;;;;;;;12.20;3.67;;;1.00;99.90;;;;;;5051605;28;20056;-69
2024/01/21 01:44:48;;;;;;;6.95;3.65;;;1.00;99.90;;;;;;5045665;28;20059;-68
2024/01/21 01:47:14;;;;;;;8.70;3.95;;;1.00;99.90;;;;;;5065959;28;20049;-69
2024/01/21 01:49:42;;;;;;;8.18;4.00;;;1.00;99.90;;;;;;5047146;28;20279;-69
2024/01/21 01:52:18;;;;;;;7.30;3.80;;;1.00;99.90;;;;;;5043920;28;20036;-68
2024/01/21 01:54:48;;;;;;;8.20;3.65;;;1.00;99.90;;;;;;5046866;28;20041;-68
2024/01/21 01:57:15;;;;;;;9.27;3.90;;;1.10;99.90;;;;;;5047398;28;20050;-70
2024/01/21 01:59:41;;;;;;;;;;;1.00;99.90;;;;;;5033728;28;20036;-72
2024/01/21 02:02:08;;;;;;;6.88;3.30;;;1.00;99.90;;;;;;5046756;28;19923;-68
2024/01/21 02:04:34;;;;;;;;;;;1.00;99.90;;;;;;5047864;28;20186;-69
2024/01/21 02:07:01;;;;;;;8.38;3.78;;;1.00;99.90;;;;;;5047650;28;20453;-68
2024/01/21 02:09:27;;;;;;;10.70;4.10;;;0.90;99.90;;;;;;5047987;28;20063;-68
2024/01/21 02:11:54;;;;;;;10.73;4.22;;;0.90;99.90;;;;;;5065062;28;20079;-69
2024/01/21 02:14:23;;;;;;;8.50;4.25;;;0.90;99.90;;;;;;4922802;28;20751;-69
2024/01/21 02:16:49;;;;;;;9.23;4.03;;;0.90;99.90;;;;;;5053168;28;20493;-69
2024/01/21 02:19:26;;;;;;;8.23;4.15;;;0.90;99.90;;;;;;5067290;28;20094;-69
2024/01/21 02:21:53;;;;;;;8.18;4.18;;;0.90;99.90;;;;;;5039489;28;20539;-71
2024/01/21 02:24:34;;;;;;;8.77;3.92;;;0.90;99.90;;;;;;5051132;28;20435;-69
2024/01/21 02:27:01;;;;;;;9.70;4.07;;;0.90;99.90;;;;;;5050727;28;20416;-68
2024/01/21 02:29:28;;;;;;;6.53;3.90;;;0.90;99.90;;;;;;5063739;28;20037;-68
2024/01/21 02:31:56;;;;;;;8.95;4.55;;;0.90;99.90;;;;;;5045755;28;20055;-68
2024/01/21 02:34:22;;;;;;;9.25;3.95;;;1.00;99.90;;;;;;5045648;28;20044;-68
2024/01/21 02:36:52;;;;;;;9.57;4.25;;;0.90;99.90;;;;;;5046844;28;20425;-69
2024/01/21 02:39:18;;;;;;;8.63;3.72;;;1.00;99.90;;;;;;5044774;28;20048;-68
2024/01/21 02:41:44;;;;;;;9.10;4.00;;;1.00;99.90;;;;;;5031371;28;20578;-69
2024/01/21 02:44:11;;;;;;;6.43;3.22;;;1.00;99.90;;;;;;5032892;28;20052;-68
2024/01/21 02:46:37;;;;;;;8.30;4.07;;;1.00;99.90;;;;;;5062226;28;20048;-69
2024/01/21 02:49:06;;;;;;;8.75;4.15;;;1.00;99.90;;;;;;5045536;28;20036;-69
2024/01/21 02:51:32;;;;;;;9.70;4.10;;;1.00;99.90;;;;;;5030362;28;20040;-69
2024/01/21 02:54:08;;;;;;;10.60;3.90;;;1.00;99.90;;;;;;5046629;28;20041;-70
2024/01/21 02:56:34;;;;;;;6.32;3.58;;;1.10;99.90;;;;;;5047813;28;20086;-70
2024/01/21 02:59:03;;;;;;;10.48;4.10;;;1.10;99.90;;;;;;5047836;28;20051;-70
2024/01/21 03:01:30;;;;;;;11.50;3.70;;;1.10;99.90;;;;;;5041215;28;20442;-70
2024/01/21 03:03:56;;;;;;;7.25;3.10;;;1.10;99.90;;;;;;5042115;28;20045;-70
2024/01/21 03:06:22;;;;;;;6.85;3.00;;;1.10;99.90;;;;;;5058821;28;20137;-73
2024/01/21 03:08:57;;;;;;;7.80;4.00;;;1.10;99.90;;;;;;5038205;28;20028;-71
2024/01/21 03:11:26;;;;;;;9.77;3.72;;;1.00;99.90;;;;;;5039483;28;20044;-70
2024/01/21 03:13:56;;;;;;;8.68;3.70;;;1.10;99.90;;;;;;5030958;28;20405;-70
2024/01/21 03:16:22;;;;;;;8.55;3.42;;;1.10;99.90;;;;;;5042555;28;20045;-71
2024/01/21 03:18:58;;;;;;;6.80;3.55;;;1.10;99.90;;;;;;5029935;28;20056;-72
2024/01/21 03:21:25;;;;;;;7.40;3.38;;;1.10;99.90;;;;;;5040872;28;20334;-70
2024/01/21 03:23:55;;;;;;;9.93;3.38;;;1.10;99.90;;;;;;5046573;28;20056;-70
2024/01/21 03:26:25;;;;;;;;;;;1.10;99.90;;;;;;5046326;28;20437;-71
2024/01/21 03:29:03;;;;;;;9.13;3.40;;;1.10;99.90;;;;;;5039778;28;19927;-70
2024/01/21 03:31:30;;;;;;;8.15;3.13;;;1.10;99.90;;;;;;4920079;28;20467;-70
2024/01/21 03:33:56;;;;;;;6.03;2.90;;;1.10;99.90;;;;;;5045396;28;20555;-71
2024/01/21 03:36:22;;;;;;;6.03;2.95;;;1.10;99.90;;;;;;5044993;28;20439;-70
2024/01/21 03:38:52;;;;;;;7.25;2.88;;;1.10;99.90;;;;;;5045653;28;20499;-68
2024/01/21 03:41:21;;;;;;;5.00;2.38;;;1.20;99.90;;;;;;5028825;28;20125;-68
2024/01/21 03:43:47;;;;;;;5.43;2.42;;;1.20;99.90;;;;;;5060476;28;20049;-70
2024/01/21 03:46:16;;;;;;;4.75;2.45;;;1.20;99.90;;;;;;5047924;28;20044;-72
2024/01/21 03:48:54;;;;;;;6.65;3.50;;;1.20;99.90;;;;;;5027013;28;20511;-74
2024/01/21 03:51:23;;;;;;;6.95;2.58;;;1.20;99.90;;;;;;5030821;28;20036;-68
2024/01/21 03:53:49;;;;;;;4.53;2.13;;;1.20;99.90;;;;;;5048242;28;20121;-68
2024/01/21 03:56:19;;;;;;;8.20;2.87;;;1.30;99.90;;;;;;5043380;28;20048;-68
2024/01/21 03:58:45;;;;;;;7.53;3.20;;;1.30;99.90;;;;;;5042990;28;20033;-68
2024/01/21 04:01:10;;;;;;;6.57;2.80;;;1.30;99.90;;;;;;5058132;28;20059;-68
2024/01/21 04:03:36;;;;;;;6.60;2.77;;;1.30;99.90;;;;;;5042004;28;20119;-68
2024/01/21 04:06:02;;;;;;;5.75;2.75;;;1.30;99.90;;;;;;5025928;28;20045;-68
2024/01/21 04:08:28;;;;;;;6.93;2.97;;;1.30;99.90;;;;;;5052927;28;20046;-68
2024/01/21 04:10:54;;;;;;;7.90;3.07;;;1.30;99.90;;;;;;5054019;28;20041;-68
2024/01/21 04:13:20;;;;;;;5.97;3.07;;;1.30;99.90;;;;;;5037391;28;20040;-68
2024/01/21 04:15:46;;;;;;;;;;;1.40;99.90;;;;;;5023794;28;20032;-68
2024/01/21 04:18:12;;;;;;;7.53;2.53;;;1.40;99.90;;;;;;5024359;28;19992;-68
2024/01/21 04:20:38;;;;;;;7.05;2.83;;;1.40;99.90;;;;;;5018679;28;20068;-72
2024/01/21 04:23:03;;;;;;;5.83;2.93;;;1.40;99.90;;;;;;5046932;28;20075;-70
2024/01/21 04:25:29;;;;;;;5.23;2.50;;;1.40;99.90;;;;;;5038567;28;20051;-70
2024/01/21 04:27:55;;;;;;;4.70;2.30;;;1.40;99.90;;;;;;5043369;28;20505;-67
2024/01/21 04:30:20;;;;;;;5.37;2.87;;;1.30;99.90;;;;;;5027240;28;20036;-67
2024/01/21 04:32:46;;;;;;;5.90;2.87;;;1.30;99.90;;;;;;5042724;28;20038;-67
2024/01/21 04:35:12;;;;;;;7.83;2.90;;;1.40;99.90;;;;;;5052953;28;20147;-67
2024/01/21 04:37:37;;;;;;;6.37;2.73;;;1.40;99.90;;;;;;5048118;28;20037;-67
2024/01/21 04:40:04;;;;;;;5.00;2.30;;;1.40;99.90;;;;;;5045585;28;20060;-68
2024/01/21 04:42:29;;;;;;;5.15;2.00;;;1.40;99.90;;;;;;5035820;28;20427;-67
2024/01/21 04:44:55;;;;;;;6.07;2.72;;;1.30;99.90;;;;;;5061022;28;20048;-68
2024/01/21 04:47:21;;;;;;;7.50;3.00;;;1.30;99.90;;;;;;5054560;28;20512;-67
2024/01/21 04:49:47;;;;;;;7.47;2.60;;;1.30;99.90;;;;;;5036911;28;20037;-67
2024/01/21 04:52:12;;;;;;;4.23;2.03;;;1.30;99.90;;;;;;5065568;28;20288;-68
2024/01/21 04:54:38;;;;;;;5.47;2.70;;;1.30;99.90;;;;;;5058845;28;20477;-67
2024/01/21 04:57:04;;;;;;;5.77;3.13;;;1.30;99.90;;;;;;5057810;28;20308;-67
2024/01/21 04:59:29;;;;;;;5.33;2.67;;;1.30;99.90;;;;;;5048661;28;20464;-68
2024/01/21 05:01:55;;;;;;;4.07;2.20;;;1.30;99.90;;;;;;5044421;28;20284;-68
2024/01/21 05:04:21;;;;;;;6.27;2.50;;;1.30;99.90;;;;;;5040690;28;20048;-70
2024/01/21 05:06:46;;;;;;;6.53;2.80;;;1.30;99.90;;;;;;5065823;28;20040;-70
2024/01/21 05:09:12;;;;;;;7.37;3.00;;;1.20;99.90;;;;;;5045960;28;20169;-67
2024/01/21 05:11:38;;;;;;;5.63;2.57;;;1.20;99.90;;;;;;5060063;28;20097;-67
2024/01/21 05:14:03;;;;;;;5.07;2.43;;;1.20;99.90;;;;;;5047363;28;20354;-67
2024/01/21 05:16:29;;;;;;;5.63;2.77;;;1.20;99.90;;;;;;5047123;28;20040;-68
2024/01/21 05:18:56;;;;;;;4.63;2.83;;;1.20;99.90;;;;;;5042008;28;20544;-68
2024/01/21 05:21:21;;;;;;;;;;;1.30;99.90;;;;;;5025830;28;20039;-67
2024/01/21 05:23:50;;;;;;;6.00;2.45;;;1.30;99.90;;;;;;5042712;28;19916;-67
2024/01/21 05:26:16;;;;;;;5.40;2.20;;;1.20;99.90;;;;;;5064201;28;20170;-68
2024/01/21 05:28:41;;;;;;;5.73;2.80;;;1.30;99.90;;;;;;5053249;28;20552;-68
2024/01/21 05:31:07;;;;;;;9.20;2.80;;;1.30;99.90;;;;;;5043319;28;20067;-67
2024/01/21 05:33:34;;;;;;;7.60;2.60;;;1.30;99.90;;;;;;5060158;28;20536;-67
2024/01/21 05:35:59;;;;;;;;;;;1.20;99.90;;;;;;5063090;28;20059;-67
2024/01/21 05:38:25;;;;;;;8.07;2.78;;;1.20;99.90;;;;;;5067326;28;19917;-67
2024/01/21 05:40:51;;;;;;;4.73;2.50;;;1.30;99.90;;;;;;5048057;28;20200;-70
2024/01/21 05:43:16;;;;;;;5.57;2.80;;;1.20;99.90;;;;;;5049636;28;20117;-70
2024/01/21 05:45:42;;;;;;;5.23;2.73;;;1.30;99.90;;;;;;5048096;28;20289;-70
2024/01/21 05:48:08;;;;;;;4.60;2.10;;;1.20;99.90;;;;;;5069174;28;20186;-70
2024/01/21 05:50:33;;;;;;;5.88;2.28;;;1.30;99.90;;;;;;5050182;28;20501;-70
2024/01/21 05:52:59;;;;;;;6.30;2.67;;;1.30;99.90;;;;;;5070543;28;20042;-70
2024/01/21 05:55:25;;;;;;;4.60;2.33;;;1.30;99.90;;;;;;5046495;28;20087;-67
2024/01/21 05:57:50;;;;;;;4.70;2.30;;;1.30;99.90;;;;;;5071991;28;20463;-68
2024/01/21 06:00:16;;;;;;;6.33;2.60;;;1.30;99.90;;;;;;5064587;28;20119;-68
2024/01/21 06:02:44;;;;;;;5.15;2.13;;;1.30;99.90;;;;;;5058987;28;20761;-68
2024/01/21 06:05:10;;;;;;;5.90;2.72;;;1.30;99.90;;;;;;5028056;28;20048;-68
2024/01/21 06:07:36;;;;;;;6.93;2.67;;;1.30;99.90;;;;;;5031981;28;20041;-68
2024/01/21 06:10:01;;;;;;;5.77;2.40;;;1.30;99.90;;;;;;5064957;28;20097;-68
2024/01/21 06:12:27;;;;;;;5.13;2.03;;;1.30;99.90;;;;;;5057369;28;20052;-68
2024/01/21 06:14:53;;;;;;;5.00;2.43;;;1.40;99.90;;;;;;5050259;28;20295;-68
2024/01/21 06:17:19;;;;;;;8.17;2.57;;;1.40;99.90;;;;;;5050548;28;20341;-68
2024/01/21 06:19:44;;;;;;;4.70;2.10;;;1.30;99.90;;;;;;5067811;28;20040;-68
2024/01/21 06:22:10;;;;;;;4.47;2.30;;;1.40;99.90;;;;;;5039281;28;20062;-68
2024/01/21 06:24:36;;;;;;;4.70;2.73;;;1.40;99.90;;;;;;5065430;28;20098;-68
2024/01/21 06:27:01;;;;;;;5.80;2.60;;;1.40;99.90;;;;;;5026808;28;20045;-68
2024/01/21 06:29:27;;;;;;;5.30;2.43;;;1.40;99.90;;;;;;5042951;28;20436;-68
2024/01/21 06:31:53;;;;;;;5.80;2.57;;;1.40;99.90;;;;;;5047809;28;20078;-68
2024/01/21 06:34:19;;;;;;;9.10;3.37;;;1.40;99.90;;;;;;5048779;28;20285;-68
2024/01/21 06:36:44;;;;;;;4.83;2.97;;;1.40;99.90;;;;;;5043146;28;20534;-68
2024/01/21 06:39:10;;;;;;;4.90;2.40;;;1.40;99.90;;;;;;5046221;28;20563;-68
2024/01/21 06:41:36;;;;;;;7.00;2.27;;;1.40;99.90;;;;;;5061236;28;20173;-68
2024/01/21 06:44:01;;;;;;;5.77;2.50;;;1.40;99.90;;;;;;5064904;28;20044;-68
2024/01/21 06:46:27;;;;;;;4.57;2.03;;;1.40;99.90;;;;;;5066301;28;20048;-68
2024/01/21 06:48:52;;;;;;;5.73;2.70;;;1.40;99.90;;;;;;5066097;28;20582;-68
2024/01/21 06:54:03;;;;;;;5.20;2.33;;;1.40;99.90;;;;;;5059632;28;20593;-68
2024/01/21 06:56:29;;;;;;;4.47;2.28;;;1.40;99.90;;;;;;5064033;28;20045;-68
2024/01/21 06:58:54;;;;;;;6.60;2.43;;;1.40;99.90;;;;;;5065787;28;20313;-68
2024/01/21 07:01:20;;;;;;;4.70;2.13;;;1.40;99.90;;;;;;5044223;28;20513;-68
2024/01/21 07:03:46;;;;;;;5.77;2.40;;;1.40;99.90;;;;;;5063724;28;20048;-68
2024/01/21 07:06:11;;;;;;;6.87;2.93;;;1.40;99.90;;;;;;5067138;28;20090;-68
2024/01/21 07:08:38;;;;;;;7.20;2.47;;;1.40;99.90;;;;;;5042047;28;20040;-69
2024/01/21 07:11:10;;;;;;;5.65;2.60;;;1.50;99.90;;;;;;5048262;28;20043;-69
2024/01/21 07:13:36;;;;;;;5.40;2.40;;;1.50;99.90;;;;;;5044940;28;20119;-68
2024/01/21 07:16:02;;;;;;;7.47;2.90;;;1.50;99.90;;;;;;5023958;28;20131;-69
2024/01/21 07:18:28;;;;;;;6.50;2.83;;;1.50;99.90;;;;;;5040241;28;20041;-68
2024/01/21 07:20:53;;;;;;;7.37;3.37;;;1.60;99.90;;;;;;5050794;28;20062;-69
2024/01/21 07:23:19;;;;;;;8.63;3.40;;;1.60;99.90;;;;;;5063124;28;20404;-68
2024/01/21 07:25:47;;;;;;;5.60;2.77;;;1.70;99.90;;;;;;5066543;28;20228;-67
2024/01/21 07:28:13;;;;;;;7.57;2.25;;;1.70;99.90;;;;;;5048878;28;20134;-68
2024/01/21 07:30:38;;;;;;;7.83;2.60;;;1.80;99.90;;;;;;5065341;28;20037;-69
2024/01/21 07:33:04;;;;;;;8.63;2.60;;;1.80;99.90;;;;;;5050283;28;20319;-70
2024/01/21 07:35:30;;;;;;;5.50;2.60;;;1.80;99.90;;;;;;5065768;28;20117;-71
2024/01/21 07:37:55;;;;;;;7.00;3.30;;;1.80;99.90;;;;;;5045869;28;20036;-71
2024/01/21 07:40:23;;;;;;;6.43;3.10;;;1.80;99.90;;;;;;5047684;28;20135;-71
2024/01/21 07:42:49;;;;;;;7.43;3.30;;;1.80;99.90;;;;;;5050384;28;20036;-71
2024/01/21 07:45:15;;;;;;;5.47;2.72;;;1.80;99.90;;;;;;5067448;28;20032;-71
2024/01/21 07:47:41;;;;;;;6.00;2.53;;;1.90;99.90;;;;;;5040803;28;20076;-71
2024/01/21 07:50:07;;;;;;;5.13;2.60;;;1.90;99.90;;;;;;5066959;28;20095;-71
2024/01/21 07:52:33;;;;;;;6.28;3.15;;;1.90;99.90;;;;;;5066313;28;20037;-68
2024/01/21 07:54:58;;;;;;;8.37;3.87;;;1.90;99.90;;;;;;5051079;28;20098;-69
2024/01/21 07:57:24;;;;;;;8.60;3.00;;;1.90;99.90;;;;;;5044758;28;20123;-70
2024/01/21 07:59:49;;;;;;;5.57;2.77;;;2.00;99.90;;;;;;5065117;28;20452;-69
2024/01/21 08:02:15;;;;;;;7.73;3.57;;;1.90;99.90;;;;;;5067955;28;20400;-68
2024/01/21 08:04:41;;;;;;;7.80;3.47;;;2.00;99.90;;;;;;5064303;28;20044;-72
2024/01/21 08:07:07;;;;;;;7.33;3.57;;;2.00;99.90;;;;;;5064531;28;20093;-71
2024/01/21 08:09:32;;;;;;;7.07;3.47;;;2.00;99.90;;;;;;5063850;28;20090;-68
2024/01/21 08:11:58;;;;;;;8.27;3.33;;;2.00;99.90;;;;;;5047111;28;20087;-68
2024/01/21 08:14:24;;;;;;;6.33;3.60;;;2.00;99.90;;;;;;5069196;28;20039;-69
2024/01/21 08:16:49;;;;;;;7.67;3.20;;;2.00;99.90;;;;;;5028225;28;20583;-68
2024/01/21 08:19:17;;;;;;;8.57;3.23;;;2.00;99.90;;;;;;5063577;28;20055;-69
2024/01/21 08:21:42;;;;;;;7.15;3.00;;;2.00;99.90;;;;;;5060206;28;20173;-70
2024/01/21 08:24:08;;;;;;;9.67;3.30;;;2.00;99.90;;;;;;5041678;28;20131;-70
2024/01/21 08:26:34;;;;;;;6.47;3.20;;;2.00;99.90;;;;;;5028775;28;20040;-70
2024/01/21 08:29:00;;;;;;;7.13;3.13;;;2.00;99.90;;;;;;5045874;28;20277;-70
2024/01/21 08:31:25;;;;;;;5.97;2.50;;;2.00;99.90;;;;;;5036594;28;20105;-71
2024/01/21 08:33:51;;;;;;;8.50;3.20;;;2.00;99.90;;;;;;5069525;28;20054;-70
2024/01/21 08:36:16;;;;;;;8.33;3.77;;;2.00;99.90;;;;;;5065862;28;20192;-71
2024/01/21 08:38:42;;;;;;;7.23;3.50;;;2.10;99.90;;;;;;5031720;28;20045;-70
2024/01/21 08:41:08;;;;;;;7.60;3.90;;;2.10;99.90;;;;;;5046150;28;20448;-70
2024/01/21 08:43:33;;;;;;;7.83;3.40;;;2.10;99.90;;;;;;5048128;28;20052;-70
2024/01/21 08:45:59;;;;;;;7.83;3.57;;;2.10;99.90;;;;;;5065109;28;20440;-70
2024/01/21 08:48:24;;;;;;;7.90;3.90;;;2.10;99.90;;;;;;5042028;28;20043;-69
2024/01/21 08:50:50;;;;;;;7.37;3.63;;;2.10;99.90;;;;;;5068148;28;20043;-69
2024/01/21 08:53:16;;;;;;;9.10;3.87;;;2.10;99.90;;;;;;5050059;28;20456;-69
2024/01/21 08:55:41;;;;;;;9.20;3.20;;;2.10;99.90;;;;;;5047834;28;20388;-69
2024/01/21 08:58:07;;;;;;;6.60;3.17;;;2.10;99.90;;;;;;5046303;28;20044;-69
2024/01/21 09:00:33;;;;;;;5.60;2.77;;;2.10;99.90;;;;;;5061891;28;20073;-69
2024/01/21 09:02:58;;;;;;;7.20;3.63;;;2.10;99.90;;;;;;5051492;28;20047;-69
2024/01/21 09:05:28;;;;;;;6.80;2.97;;;2.10;99.90;;;;;;5030702;28;20095;-69
2024/01/21 09:07:54;;;;;;;7.50;3.90;;;2.10;99.90;;;;;;5065005;28;20785;-68
2024/01/21 09:10:21;;;;;;;7.47;3.27;;;2.20;99.90;;;;;;5049556;28;20049;-69
2024/01/21 09:12:47;;;;;;;10.43;3.90;;;2.20;99.90;;;;;;5061767;28;20040;-69
2024/01/21 09:15:13;;;;;;;7.03;3.03;;;2.20;99.90;;;;;;5063113;28;20410;-69
2024/01/21 09:17:39;;;;;;;12.83;4.17;;;2.30;99.90;;;;;;5049697;28;20048;-68
2024/01/21 09:20:05;;;;;;;11.48;4.18;;;2.30;99.90;;;;;;5055320;28;20512;-69
2024/01/21 09:22:30;;;;;;;9.68;4.15;;;2.30;99.90;;;;;;5051846;28;20052;-69
2024/01/21 09:24:56;;;;;;;5.70;3.10;;;2.30;99.90;;;;;;5055083;28;20040;-69
2024/01/21 09:27:23;;;;;;;4.77;3.03;;;2.40;99.90;;;;;;5061713;28;20036;-69
2024/01/21 09:29:48;;;;;;;;;;;2.40;99.90;;;;;;5040079;28;20050;-69
2024/01/21 09:32:14;;;;;;;7.97;3.60;;;2.40;99.90;;;;;;5040844;28;19916;-69
2024/01/21 09:34:40;;;;;;;8.70;3.43;;;2.50;99.90;;;;;;5059836;28;20105;-69
2024/01/21 09:37:06;;;;;;;8.93;3.53;;;2.50;99.90;;;;;;5031674;28;20320;-69
2024/01/21 09:39:31;;;;;;;7.43;3.30;;;2.60;99.90;;;;;;5067785;28;20595;-69
2024/01/21 09:42:04;;;;;;;6.03;3.50;;;2.60;99.90;;;;;;5056746;28;20118;-69
2024/01/21 09:44:30;;;;;;;6.05;3.42;;;2.60;99.90;;;;;;5059247;28;20052;-68
2024/01/21 09:46:59;;;;;;;9.77;3.90;;;2.60;99.90;;;;;;5073485;28;20398;-69
2024/01/21 09:49:28;;;;;;;6.68;3.42;;;2.60;99.90;;;;;;5073738;28;20036;-68
2024/01/21 09:51:55;;;;;;;9.77;3.35;;;2.70;99.90;;;;;;5056425;28;20405;-69
2024/01/21 09:54:21;;;;;;;7.25;3.55;;;2.70;99.90;;;;;;5043539;28;20093;-69
2024/01/21 09:56:48;;;;;;;9.27;4.13;;;2.80;99.90;;;;;;5058476;28;20393;-69
2024/01/21 09:59:15;;;;;;;7.93;3.70;;;2.80;99.90;;;;;;5074371;28;20496;-69
2024/01/21 10:01:42;;;;;;;9.73;4.35;;;2.90;99.90;;;;;;5040477;28;20040;-69
2024/01/21 10:04:12;;;;;;;9.93;3.55;;;2.90;99.90;;;;;;5060538;28;20048;-69
2024/01/21 10:06:39;;;;;;;11.18;3.67;;;2.90;99.90;;;;;;5056909;28;20536;-69
2024/01/21 10:09:21;;;;;;;7.93;3.63;;;3.00;99.90;;;;;;5055066;28;20098;-69
2024/01/21 10:11:59;;;;;;;8.35;3.92;;;3.00;99.90;;;;;;5068808;28;20044;-71
2024/01/21 10:14:26;;;;;;;8.13;3.38;;;3.00;99.90;;;;;;5068710;28;20094;-70
2024/01/21 10:16:52;;;;;;;9.05;4.03;;;3.00;99.90;;;;;;5073302;28;20318;-69
2024/01/21 10:19:44;;;;;;;8.38;3.50;;;3.10;99.90;;;;;;5074323;28;20070;-69
2024/01/21 10:22:15;;;;;;;12.13;3.88;;;3.20;99.90;;;;;;5072107;28;20048;-69
2024/01/21 10:24:42;;;;;;;7.68;4.13;;;3.20;99.90;;;;;;5046358;28;20054;-70
2024/01/21 10:27:09;;;;;;;8.65;3.40;;;3.20;99.90;;;;;;5046146;28;20098;-69
2024/01/21 10:29:41;;;;;;;6.93;3.88;;;3.20;99.90;;;;;;5055983;28;20048;-71
2024/01/21 10:32:10;;;;;;;9.35;4.50;;;3.20;99.90;;;;;;5042429;28;20040;-69
2024/01/21 10:34:49;;;;;;;7.82;3.95;;;3.30;99.90;;;;;;5068842;28;20044;-68
2024/01/21 10:37:18;;;;;;;8.07;4.03;;;3.30;99.90;;;;;;5057578;28;20576;-68
2024/01/21 10:39:47;;;;;;;12.50;4.22;;;3.30;99.90;;;;;;5044486;28;20044;-72
2024/01/21 10:42:16;;;;;;;10.35;4.35;;;3.40;99.90;;;;;;5048138;28;20053;-71
2024/01/21 10:44:43;;;;;;;9.38;3.90;;;3.40;99.90;;;;;;5068192;28;20044;-68
2024/01/21 10:47:09;;;;;;;8.55;4.25;;;3.50;99.90;;;;;;5077325;28;20036;-69
2024/01/21 10:49:36;;;;;;;10.52;4.00;;;3.50;99.90;;;;;;5047451;28;20136;-69
2024/01/21 10:52:08;;;;;;;8.20;4.32;;;3.50;99.90;;;;;;5066434;28;20093;-70
2024/01/21 10:54:36;;;;;;;9.90;3.92;;;3.50;99.90;;;;;;5045463;28;20412;-68
2024/01/21 10:57:06;;;;;;;7.85;3.85;;;3.50;99.90;;;;;;5065013;28;20046;-70
2024/01/21 10:59:36;;;;;;;9.35;4.40;;;3.50;99.90;;;;;;5029494;28;20044;-69
2024/01/21 11:02:02;;;;;;;8.50;3.80;;;3.60;99.90;;;;;;5072690;28;20048;-70
2024/01/21 11:04:27;;;;;;;9.70;4.40;;;3.60;99.90;;;;;;5073328;28;20055;-70
2024/01/21 11:06:56;;;;;;;9.20;4.23;;;3.70;99.90;;;;;;5057527;28;20040;-69
2024/01/21 11:09:26;;;;;;;11.25;4.50;;;3.80;99.90;;;;;;5073604;28;20488;-70
2024/01/21 11:11:52;;;;;;;11.80;4.38;;;3.70;99.90;;;;;;5040382;28;20555;-70
2024/01/21 11:14:39;;;;;;;12.10;4.80;;;3.80;99.90;;;;;;5078944;28;20052;-70
2024/01/21 11:17:11;;;;;;;9.38;4.75;;;3.80;99.90;;;;;;5054172;28;20056;-70
2024/01/21 11:19:47;;;;;;;8.63;4.20;;;3.80;99.90;;;;;;5057172;28;20331;-69
2024/01/21 11:22:14;;;;;;;8.50;4.28;;;3.80;99.90;;;;;;5042394;28;20052;-69
2024/01/21 11:24:47;;;;;;;11.20;5.20;;;3.80;99.90;;;;;;5054339;28;20039;-70
2024/01/21 11:27:19;;;;;;;10.05;4.38;;;3.90;99.90;;;;;;5062402;28;20047;-70
2024/01/21 11:29:52;;;;;;;9.40;4.72;;;3.80;99.90;;;;;;5070119;28;20095;-70
2024/01/21 11:32:26;;;;;;;7.05;4.20;;;3.90;99.90;;;;;;5053769;28;20457;-70
2024/01/21 11:34:52;;;;;;;11.77;4.60;;;3.90;99.90;;;;;;5046733;28;20524;-69
2024/01/21 11:37:18;;;;;;;6.90;3.33;;;3.90;99.90;;;;;;5078843;28;20040;-70
2024/01/21 11:39:44;;;;;;;7.00;3.63;;;3.90;99.90;;;;;;5067260;28;20057;-69
2024/01/21 11:42:10;;;;;;;8.50;4.20;;;3.90;99.90;;;;;;5045720;28;20400;-72
2024/01/21 11:44:40;;;;;;;7.97;4.32;;;3.90;99.90;;;;;;5034448;28;20052;-72
2024/01/21 11:47:08;;;;;;;8.60;3.78;;;3.90;99.90;;;;;;5068523;28;20040;-70
2024/01/21 11:49:39;;;;;;;9.82;4.50;;;3.90;99.90;;;;;;5043063;28;20045;-71
2024/01/21 11:52:05;;;;;;;9.48;4.47;;;3.90;99.90;;;;;;5026056;28;20603;-69
2024/01/21 11:54:36;;;;;;;9.85;4.93;;;3.90;99.90;;;;;;5038344;28;20028;-69
2024/01/21 11:57:02;;;;;;;9.77;4.63;;;3.90;99.90;;;;;;5060097;28;20560;-70
2024/01/21 11:59:30;;;;;;;8.20;4.25;;;3.90;99.90;;;;;;5041682;28;20036;-69
2024/01/21 12:01:57;;;;;;;7.25;4.00;;;3.90;99.90;;;;;;5042497;28;20473;-69
2024/01/21 12:04:27;;;;;;;8.57;4.93;;;3.90;99.90;;;;;;5046264;28;20119;-70
2024/01/21 12:06:52;;;;;;;;;;;3.90;99.90;;;;;;5027323;28;20044;-69
2024/01/21 12:09:19;;;;;;;10.32;4.78;;;4.00;99.90;;;;;;5043343;28;20373;-70
2024/01/21 12:11:50;;;;;;;11.48;4.78;;;3.90;99.90;;;;;;5061782;28;20040;-70
2024/01/21 12:14:17;;;;;;;10.70;5.15;;;4.00;99.90;;;;;;5024285;28;20464;-70
2024/01/21 12:16:43;;;;;;;8.52;4.65;;;4.00;99.90;;;;;;5061910;28;20039;-70
2024/01/21 12:19:13;;;;;;;10.20;5.18;;;4.00;99.90;;;;;;5039120;28;20106;-73
2024/01/21 12:21:42;;;;;;;10.70;4.78;;;4.00;99.90;;;;;;5040182;28;20040;-70
2024/01/21 12:24:07;;;;;;;11.23;4.45;;;4.10;99.90;;;;;;5037289;28;20057;-72
2024/01/21 12:26:33;;;;;;;9.17;4.67;;;4.10;99.90;;;;;;5042649;28;20075;-70
2024/01/21 12:29:00;;;;;;;7.90;4.10;;;4.10;99.90;;;;;;5037652;28;20036;-69
2024/01/21 12:31:28;;;;;;;8.45;4.63;;;4.10;99.90;;;;;;5047109;28;20102;-69
2024/01/21 12:34:06;;;;;;;9.13;4.75;;;4.20;99.90;;;;;;5028465;28;20479;-69
2024/01/21 12:36:40;;;;;;;10.87;5.10;;;4.10;99.90;;;;;;5043762;28;20373;-68
2024/01/21 12:39:09;;;;;;;14.60;4.80;;;4.20;99.90;;;;;;5060030;28;20167;-68
2024/01/21 12:41:35;;;;;;;8.73;4.93;;;4.20;99.90;;;;;;5058421;28;20504;-69
2024/01/21 12:44:01;;;;;;;16.10;5.13;;;4.20;99.90;;;;;;5041770;28;20037;-68
2024/01/21 12:46:27;;;;;;;10.25;4.68;;;4.20;99.90;;;;;;5025186;28;20493;-68
2024/01/21 12:48:54;;;;;;;12.50;5.97;;;4.20;99.90;;;;;;5045240;28;20059;-69
2024/01/21 12:51:20;;;;;;;14.33;6.70;;;4.20;99.90;;;;;;5043009;28;20548;-69
2024/01/21 12:53:48;;;;;;;15.52;7.03;;;4.20;99.90;;;;;;5044165;28;20068;-70
2024/01/21 12:56:14;;;;;;;13.15;6.20;;;4.20;99.90;;;;;;5046374;28;20033;-69
2024/01/21 12:58:40;;;;;;;11.13;5.57;;;4.20;99.90;;;;;;5060847;28;20048;-69
2024/01/21 13:01:10;;;;;;;14.50;6.63;;;4.20;99.90;;;;;;5062859;28;20403;-71